Time;durP1;ratioP1;P1;durP2;ratioP2;P2;SDS_P1;SDS_P2;PMS_P1;PMS_P2;Temp;Humidity;BMP_temperature;BMP_pressure;BME280_temperature;BME280_humidity;BME280_pressure;Samples;Min_cycle;Max_cycle;Signal;HPM_P1;HPM_P2
2023/11/03 00:00:18;;;;;;;5.70;1.55;;;;;;;8.92;100.00;97457.84;5048738;28;20494;-72
2023/11/03 00:02:46;;;;;;;5.47;1.27;;;;;;;8.92;100.00;97467.56;5048783;28;20227;-71
2023/11/03 00:05:14;;;;;;;5.78;1.13;;;;;;;8.89;100.00;97459.91;5048315;28;20052;-73
2023/11/03 00:07:44;;;;;;;9.68;1.85;;;;;;;8.84;100.00;97446.25;5059280;28;20083;-72
2023/11/03 00:10:13;;;;;;;3.72;1.45;;;;;;;8.76;100.00;97450.41;5054308;28;20071;-72
2023/11/03 00:12:41;;;;;;;9.10;1.60;;;;;;;8.74;100.00;97440.97;5046992;28;20045;-71
2023/11/03 00:15:10;;;;;;;5.82;1.48;;;;;;;8.75;100.00;97446.09;5048686;28;20041;-72
2023/11/03 00:17:39;;;;;;;5.00;1.00;;;;;;;8.74;100.00;97444.44;5056461;28;20047;-73
2023/11/03 00:20:08;;;;;;;7.32;1.60;;;;;;;8.70;100.00;97440.38;5053438;28;20099;-71
2023/11/03 00:22:39;;;;;;;6.13;1.17;;;;;;;8.65;100.00;97437.31;5053938;28;20059;-72
2023/11/03 00:25:13;;;;;;;3.95;1.20;;;;;;;8.71;100.00;97436.78;5031678;28;20077;-72
2023/11/03 00:27:46;;;;;;;5.72;1.35;;;;;;;8.77;100.00;97428.34;5053766;28;20041;-71
2023/11/03 00:30:16;;;;;;;6.78;1.30;;;;;;;8.86;100.00;97423.22;5039693;28;20059;-73
2023/11/03 00:32:44;;;;;;;4.38;1.30;;;;;;;8.93;100.00;97427.00;5045327;28;20069;-71
2023/11/03 00:35:14;;;;;;;7.82;1.58;;;;;;;8.93;100.00;97424.38;5049967;28;20059;-71
2023/11/03 00:37:44;;;;;;;7.15;1.60;;;;;;;8.91;100.00;97419.22;5049928;28;20511;-72
2023/11/03 00:40:16;;;;;;;5.30;1.60;;;;;;;8.99;100.00;97415.91;5063210;28;20048;-72
2023/11/03 00:42:45;;;;;;;4.43;1.20;;;;;;;8.97;100.00;97409.94;5046617;28;20457;-72
2023/11/03 00:45:14;;;;;;;6.63;1.57;;;;;;;8.85;100.00;97369.59;5058785;28;20040;-71
2023/11/03 00:47:42;;;;;;;6.97;1.33;;;;;;;9.11;100.00;97404.28;5065238;28;20117;-72
2023/11/03 00:50:12;;;;;;;2.70;1.10;;;;;;;9.14;100.00;97401.34;5064458;28;20087;-72
2023/11/03 00:52:40;;;;;;;3.78;1.17;;;;;;;9.05;100.00;97388.97;5062942;28;20072;-72
2023/11/03 00:55:13;;;;;;;3.95;1.23;;;;;;;8.99;100.00;97386.88;5032427;28;20048;-71
2023/11/03 00:57:43;;;;;;;5.97;1.38;;;;;;;8.98;100.00;97383.38;5052012;28;20053;-72
2023/11/03 01:00:15;;;;;;;5.47;1.30;;;;;;;8.99;100.00;97387.69;5034737;28;20552;-72
2023/11/03 01:02:45;;;;;;;5.25;1.33;;;;;;;8.96;100.00;97376.59;5049895;28;20049;-72
2023/11/03 01:05:17;;;;;;;5.55;1.15;;;;;;;8.98;100.00;97382.56;5059790;28;20135;-72
2023/11/03 01:07:45;;;;;;;2.47;1.08;;;;;;;9.05;100.00;97381.06;5050714;28;20106;-72
2023/11/03 01:10:16;;;;;;;4.57;1.33;;;;;;;8.97;100.00;97376.44;5049021;28;20041;-72
2023/11/03 01:12:46;;;;;;;3.10;1.27;;;;;;;8.99;100.00;97384.22;5033873;28;20094;-72
2023/11/03 01:15:20;;;;;;;6.07;1.00;;;;;;;8.98;100.00;97369.34;5043435;28;20072;-72
2023/11/03 01:17:52;;;;;;;3.53;1.10;;;;;;;9.01;100.00;97387.56;5035060;28;20041;-72
2023/11/03 01:20:27;;;;;;;8.25;1.80;;;;;;;8.96;100.00;97380.06;5049360;28;20095;-71
2023/11/03 01:22:56;;;;;;;4.93;1.55;;;;;;;8.89;100.00;97386.00;5066413;28;20076;-73
2023/11/03 01:25:25;;;;;;;6.10;1.27;;;;;;;8.78;100.00;97371.97;5072133;28;20461;-71
2023/11/03 01:27:55;;;;;;;3.72;1.00;;;;;;;8.89;100.00;97392.13;5067522;28;20044;-71
2023/11/03 01:30:25;;;;;;;5.72;1.08;;;;;;;8.89;100.00;97396.56;5066233;28;20091;-71
2023/11/03 01:32:54;;;;;;;;;;;;;;;8.91;100.00;97395.47;5052179;28;20052;-71
2023/11/03 01:35:24;;;;;;;6.95;1.23;;;;;;;8.94;100.00;97403.13;5041713;28;19921;-73
2023/11/03 01:37:54;;;;;;;4.90;1.00;;;;;;;8.88;100.00;97410.72;5053759;28;20043;-71
2023/11/03 01:40:22;;;;;;;11.73;1.33;;;;;;;8.87;100.00;97411.69;5018053;28;20049;-71
2023/11/03 01:42:53;;;;;;;3.67;1.02;;;;;;;8.79;100.00;97404.47;5049323;28;20044;-71
2023/11/03 01:45:25;;;;;;;5.70;1.27;;;;;;;8.85;100.00;97416.28;5046768;28;20041;-72
2023/11/03 01:47:53;;;;;;;3.23;1.33;;;;;;;8.81;100.00;97422.81;5031599;28;20049;-72
2023/11/03 01:50:23;;;;;;;4.32;0.93;;;;;;;8.80;100.00;97414.06;5049546;28;21218;-72
2023/11/03 01:52:53;;;;;;;;;;;;;;;8.89;100.00;97421.16;5052288;28;20096;-71
2023/11/03 01:55:23;;;;;;;3.33;1.10;;;;;;;8.87;100.00;97417.81;5039033;28;19928;-73
2023/11/03 01:57:51;;;;;;;5.38;1.33;;;;;;;8.90;100.00;97416.72;5044401;28;20060;-73
2023/11/03 02:00:20;;;;;;;5.25;1.25;;;;;;;8.89;100.00;97417.69;5051041;28;20118;-71
2023/11/03 02:02:53;;;;;;;3.67;1.23;;;;;;;8.89;100.00;97420.31;5033723;28;20045;-71
2023/11/03 02:05:21;;;;;;;7.03;1.20;;;;;;;8.85;100.00;97411.00;5045708;28;20057;-72
2023/11/03 02:07:50;;;;;;;3.92;1.30;;;;;;;8.81;100.00;97412.25;5032502;28;20049;-72
2023/11/03 02:10:18;;;;;;;6.03;1.40;;;;;;;8.70;100.00;97411.34;5048299;28;20049;-72
2023/11/03 02:12:47;;;;;;;7.03;1.45;;;;;;;8.74;100.00;97425.97;5043244;28;20532;-72
2023/11/03 02:15:17;;;;;;;4.35;1.20;;;;;;;8.80;100.00;97427.25;5043205;28;20057;-73
2023/11/03 02:17:45;;;;;;;5.28;1.55;;;;;;;8.79;100.00;97429.03;5055695;28;20520;-72
2023/11/03 02:20:17;;;;;;;4.63;1.70;;;;;;;8.74;100.00;97427.75;5051594;28;20131;-71
2023/11/03 02:22:45;;;;;;;5.03;1.38;;;;;;;8.78;100.00;97435.28;5049357;28;20049;-71
2023/11/03 02:25:17;;;;;;;3.55;1.25;;;;;;;8.76;100.00;97425.84;5045963;28;20045;-72
2023/11/03 02:27:45;;;;;;;3.85;1.20;;;;;;;8.75;100.00;97419.72;5053398;28;20068;-71
2023/11/03 02:30:16;;;;;;;3.35;1.17;;;;;;;8.77;100.00;97422.22;5037503;28;20410;-72
2023/11/03 02:32:44;;;;;;;5.45;1.30;;;;;;;8.74;100.00;97406.66;5052008;28;20117;-71
2023/11/03 02:35:12;;;;;;;6.65;1.33;;;;;;;8.83;100.00;97412.94;5044102;28;20049;-71
2023/11/03 02:37:43;;;;;;;5.78;1.20;;;;;;;8.86;100.00;97412.66;5039407;28;20140;-72
2023/11/03 02:40:12;;;;;;;4.88;1.10;;;;;;;8.85;100.00;97406.56;5055690;28;20071;-71
2023/11/03 02:42:41;;;;;;;4.97;1.25;;;;;;;8.81;100.00;97407.81;5050774;28;20190;-73
2023/11/03 02:45:11;;;;;;;5.88;1.30;;;;;;;8.83;100.00;97416.41;5047388;28;20053;-72
2023/11/03 02:47:42;;;;;;;7.57;1.33;;;;;;;8.87;100.00;97424.88;5051876;28;20049;-71
2023/11/03 02:50:11;;;;;;;4.85;1.30;;;;;;;8.90;100.00;97422.00;5049695;28;20037;-72
2023/11/03 02:52:40;;;;;;;7.65;1.20;;;;;;;8.95;100.00;97425.91;5052743;28;20045;-73
2023/11/03 02:55:09;;;;;;;6.65;1.23;;;;;;;8.99;100.00;97410.63;5045384;28;20504;-73
2023/11/03 02:57:39;;;;;;;7.28;1.90;;;;;;;8.94;100.00;97423.41;5039842;28;20057;-72
2023/11/03 03:00:16;;;;;;;5.30;1.00;;;;;;;8.98;100.00;97420.34;5048556;28;20046;-72
2023/11/03 03:02:44;;;;;;;3.95;1.00;;;;;;;9.02;100.00;97418.28;5050900;28;20067;-71
2023/11/03 03:05:13;;;;;;;7.38;1.45;;;;;;;9.04;100.00;97413.69;5039847;28;20365;-72
2023/11/03 03:07:45;;;;;;;3.95;1.25;;;;;;;8.98;100.00;97408.94;5050286;28;20049;-72
2023/11/03 03:10:14;;;;;;;2.95;1.00;;;;;;;9.05;100.00;97413.56;5050868;28;20116;-72
2023/11/03 03:12:49;;;;;;;6.40;1.38;;;;;;;9.10;100.00;97410.53;5051246;28;20569;-73
2023/11/03 03:15:19;;;;;;;2.65;0.88;;;;;;;9.21;100.00;97423.59;5045995;28;20053;-71
2023/11/03 03:17:47;;;;;;;5.53;1.20;;;;;;;9.23;100.00;97416.38;5048031;28;20041;-72
2023/11/03 03:20:16;;;;;;;4.80;1.17;;;;;;;9.20;100.00;97419.28;5067805;28;20464;-72
2023/11/03 03:22:46;;;;;;;6.07;1.40;;;;;;;9.25;100.00;97422.38;5050669;28;20053;-73
2023/11/03 03:25:14;;;;;;;6.00;1.17;;;;;;;9.32;100.00;97417.38;5024791;28;20520;-73
2023/11/03 03:27:43;;;;;;;5.18;0.93;;;;;;;9.41;100.00;97427.97;5052047;28;20456;-72
2023/11/03 03:30:13;;;;;;;3.33;0.80;;;;;;;9.40;100.00;97426.28;5052107;28;20045;-72
2023/11/03 03:32:43;;;;;;;4.25;1.02;;;;;;;9.39;100.00;97429.06;5050684;28;20041;-72
2023/11/03 03:35:10;;;;;;;4.97;1.67;;;;;;;9.38;100.00;97436.16;5040162;28;20038;-72
2023/11/03 03:37:38;;;;;;;5.45;1.20;;;;;;;9.39;100.00;97423.78;5050299;28;21475;-73
2023/11/03 03:40:09;;;;;;;3.97;1.10;;;;;;;9.40;100.00;97418.38;5065527;28;20222;-72
2023/11/03 03:42:37;;;;;;;;;;;;;;;9.55;100.00;97429.38;5065202;28;20060;-71
2023/11/03 03:45:06;;;;;;;6.57;1.40;;;;;;;9.58;100.00;97428.25;5044415;28;20344;-72
2023/11/03 03:47:34;;;;;;;5.47;1.02;;;;;;;9.51;100.00;97427.97;5052198;28;20136;-72
2023/11/03 03:50:05;;;;;;;7.38;1.23;;;;;;;9.50;100.00;97434.22;5047828;28;20051;-71
2023/11/03 03:52:35;;;;;;;3.55;0.90;;;;;;;9.56;100.00;97441.59;5064432;28;20073;-72
2023/11/03 03:55:03;;;;;;;2.80;1.00;;;;;;;9.58;100.00;97444.09;5042426;28;20044;-72
2023/11/03 03:57:32;;;;;;;4.47;1.08;;;;;;;9.50;100.00;97437.69;5043215;28;20048;-73
2023/11/03 04:00:02;;;;;;;5.68;1.00;;;;;;;9.48;100.00;97444.91;5049655;28;20111;-72
2023/11/03 04:02:31;;;;;;;3.92;0.90;;;;;;;9.47;100.00;97432.69;5053984;28;20041;-71
2023/11/03 04:05:01;;;;;;;3.70;1.00;;;;;;;9.46;100.00;97438.09;5043245;28;20449;-71
2023/11/03 04:07:30;;;;;;;5.20;1.10;;;;;;;9.48;100.00;97449.34;5043981;28;20090;-72
2023/11/03 04:09:59;;;;;;;4.47;1.30;;;;;;;9.50;100.00;97447.41;5047913;28;20087;-71
2023/11/03 04:12:31;;;;;;;6.72;1.10;;;;;;;9.39;100.00;97437.81;5044008;28;20115;-72
2023/11/03 04:14:59;;;;;;;3.38;0.88;;;;;;;9.40;100.00;97450.06;5061100;28;20052;-72
2023/11/03 04:17:27;;;;;;;5.35;0.98;;;;;;;9.52;100.00;97461.31;5046316;28;20040;-72
2023/11/03 04:19:55;;;;;;;3.90;1.10;;;;;;;9.48;100.00;97455.47;5046271;28;20045;-72
2023/11/03 04:22:24;;;;;;;4.35;1.00;;;;;;;9.50;100.00;97464.09;5067724;28;20045;-72
2023/11/03 04:24:56;;;;;;;4.20;1.10;;;;;;;9.47;100.00;97464.38;5057619;28;20049;-71
2023/11/03 04:27:24;;;;;;;5.27;1.00;;;;;;;9.44;100.00;97451.44;5074293;28;20045;-71
2023/11/03 04:29:53;;;;;;;6.57;1.10;;;;;;;9.19;100.00;97417.63;5059839;28;20064;-72
2023/11/03 04:32:24;;;;;;;4.70;0.65;;;;;;;9.50;100.00;97468.56;5057827;28;20067;-73
2023/11/03 04:34:52;;;;;;;3.88;1.05;;;;;;;9.46;100.00;97472.44;5043811;28;20451;-73
2023/11/03 04:37:20;;;;;;;3.08;0.80;;;;;;;9.47;100.00;97474.09;5047438;28;20045;-72
2023/11/03 04:39:50;;;;;;;3.70;1.33;;;;;;;9.48;100.00;97476.59;5050715;28;20041;-72
2023/11/03 04:42:20;;;;;;;7.15;1.20;;;;;;;9.44;100.00;97475.19;5056070;28;20079;-71
2023/11/03 04:44:56;;;;;;;5.30;0.80;;;;;;;9.37;100.00;97463.53;5053215;28;20051;-71
2023/11/03 04:47:26;;;;;;;5.15;1.08;;;;;;;9.44;100.00;97462.00;5044804;28;20213;-71
2023/11/03 04:49:54;;;;;;;2.70;0.93;;;;;;;9.46;100.00;97451.28;5064098;28;20049;-73
2023/11/03 04:52:22;;;;;;;5.22;1.23;;;;;;;9.46;100.00;97451.28;5058647;28;20053;-72
2023/11/03 04:54:53;;;;;;;;;;;;;;;9.44;100.00;97446.16;5046482;28;20045;-73
2023/11/03 04:57:23;;;;;;;5.97;1.35;;;;;;;9.35;100.00;97456.72;5044719;28;19928;-73
2023/11/03 04:59:51;;;;;;;5.40;1.30;;;;;;;9.31;100.00;97444.75;5051272;28;20051;-72
2023/11/03 05:02:20;;;;;;;5.07;1.10;;;;;;;9.32;100.00;97447.25;5045573;28;20052;-73
2023/11/03 05:04:52;;;;;;;5.53;0.93;;;;;;;9.34;100.00;97433.91;5047825;28;20048;-72
2023/11/03 05:07:22;;;;;;;5.40;1.70;;;;;;;9.36;100.00;97438.09;5046944;28;20079;-74
2023/11/03 05:09:51;;;;;;;6.85;1.10;;;;;;;9.30;100.00;97438.63;5045086;28;20049;-73
2023/11/03 05:12:19;;;;;;;2.88;0.98;;;;;;;9.14;100.00;97431.22;5051964;28;20099;-71
2023/11/03 05:14:51;;;;;;;8.77;1.27;;;;;;;9.20;100.00;97440.41;5045708;28;20568;-71
2023/11/03 05:17:21;;;;;;;6.07;1.60;;;;;;;9.27;100.00;97438.91;5046917;28;20080;-71
2023/11/03 05:19:51;;;;;;;5.75;1.45;;;;;;;9.25;100.00;97432.94;5034581;28;20076;-72
2023/11/03 05:22:19;;;;;;;5.90;1.30;;;;;;;9.24;100.00;97435.72;5054839;28;20061;-72
2023/11/03 05:24:48;;;;;;;5.97;1.30;;;;;;;9.27;100.00;97432.81;5054750;28;20100;-71
2023/11/03 05:27:16;;;;;;;5.15;1.13;;;;;;;9.24;100.00;97418.06;5047705;28;20428;-73
2023/11/03 05:29:45;;;;;;;3.72;0.93;;;;;;;9.22;100.00;97432.38;5053944;28;20124;-71
2023/11/03 05:32:15;;;;;;;3.88;1.05;;;;;;;9.20;100.00;97432.50;5031109;28;20044;-71
2023/11/03 05:34:44;;;;;;;5.68;1.10;;;;;;;9.20;100.00;97434.31;5062099;28;20100;-73
2023/11/03 05:37:14;;;;;;;;;;;;;;;9.23;100.00;97437.50;5045083;28;20057;-72
2023/11/03 05:39:45;;;;;;;5.03;1.30;;;;;;;9.20;100.00;97444.84;5050552;28;19921;-72
2023/11/03 05:42:13;;;;;;;6.63;1.40;;;;;;;9.25;100.00;97445.31;5048994;28;20041;-72
2023/11/03 05:44:45;;;;;;;4.13;0.98;;;;;;;9.32;100.00;97454.34;5048324;28;20037;-73
2023/11/03 05:47:14;;;;;;;3.05;1.05;;;;;;;9.45;100.00;97476.03;5042109;28;20045;-75
2023/11/03 05:49:43;;;;;;;6.82;1.20;;;;;;;9.51;100.00;97483.44;5049825;28;20489;-71
2023/11/03 05:52:11;;;;;;;6.40;1.40;;;;;;;9.51;100.00;97475.50;5051793;28;20501;-72
2023/11/03 05:54:44;;;;;;;3.33;0.80;;;;;;;9.42;100.00;97487.75;5032217;28;20135;-73
2023/11/03 05:57:12;;;;;;;3.22;0.93;;;;;;;9.27;100.00;97486.44;5042047;28;20055;-72
2023/11/03 05:59:40;;;;;;;7.28;1.13;;;;;;;9.23;100.00;97489.47;5030607;28;20536;-71
2023/11/03 06:02:09;;;;;;;4.78;1.05;;;;;;;9.21;100.00;97480.84;5046839;28;20045;-72
2023/11/03 06:04:39;;;;;;;8.80;1.67;;;;;;;9.29;100.00;97486.28;5048154;28;20120;-72
2023/11/03 06:07:07;;;;;;;6.07;1.00;;;;;;;9.29;100.00;97486.28;5044445;28;20555;-72
2023/11/03 06:09:37;;;;;;;4.72;1.20;;;;;;;9.31;100.00;97495.75;5049398;28;20851;-72
2023/11/03 06:12:07;;;;;;;4.88;1.00;;;;;;;9.21;100.00;97481.69;5050352;28;20534;-71
2023/11/03 06:14:36;;;;;;;6.32;1.25;;;;;;;9.29;100.00;97513.53;5050128;28;20053;-71
2023/11/03 06:17:05;;;;;;;8.23;1.48;;;;;;;9.28;100.00;97517.16;5035684;28;20045;-73
2023/11/03 06:19:34;;;;;;;7.75;1.13;;;;;;;9.27;100.00;97518.13;5049903;28;20041;-74
2023/11/03 06:22:03;;;;;;;5.18;1.10;;;;;;;9.30;100.00;97519.66;5053420;28;20060;-72
2023/11/03 06:24:34;;;;;;;6.47;1.38;;;;;;;9.34;100.00;97527.16;5047045;28;20043;-72
2023/11/03 06:27:04;;;;;;;11.82;1.60;;;;;;;9.32;100.00;97529.09;5028773;28;20045;-72
2023/11/03 06:29:33;;;;;;;4.80;1.10;;;;;;;9.33;100.00;97532.59;5046738;28;20060;-72
2023/11/03 06:32:03;;;;;;;5.78;1.08;;;;;;;9.29;100.00;97539.09;5066150;28;20499;-73
2023/11/03 06:34:30;;;;;;;4.75;1.33;;;;;;;9.22;100.00;97538.81;5045577;28;20041;-72
2023/11/03 06:36:59;;;;;;;5.07;1.20;;;;;;;9.18;100.00;97536.56;5037667;28;20045;-72
2023/11/03 06:39:32;;;;;;;4.78;1.02;;;;;;;9.23;100.00;97532.56;5029577;28;20041;-73
2023/11/03 06:42:03;;;;;;;3.10;0.90;;;;;;;9.20;100.00;97540.75;5048739;28;20412;-72
2023/11/03 06:44:32;;;;;;;6.93;1.15;;;;;;;9.17;100.00;97541.00;5049568;28;20041;-72
2023/11/03 06:47:01;;;;;;;5.63;1.13;;;;;;;9.12;100.00;97545.88;5039262;28;20084;-72
2023/11/03 06:49:29;;;;;;;3.90;0.90;;;;;;;9.09;100.00;97557.53;5043264;28;20049;-73
2023/11/03 06:51:58;;;;;;;5.25;1.30;;;;;;;9.14;100.00;97557.09;5056641;28;20045;-73
2023/11/03 06:54:27;;;;;;;6.75;1.05;;;;;;;9.16;100.00;97560.44;5051395;28;20055;-71
2023/11/03 06:56:57;;;;;;;5.60;1.13;;;;;;;9.09;100.00;97569.88;5036762;28;20573;-72
2023/11/03 06:59:25;;;;;;;5.38;1.27;;;;;;;9.17;100.00;97582.41;5048323;28;20527;-72
2023/11/03 07:01:53;;;;;;;6.70;1.70;;;;;;;9.21;100.00;97576.75;5041430;28;20475;-73
2023/11/03 07:04:24;;;;;;;5.40;1.40;;;;;;;9.25;100.00;97574.69;5028653;28;20501;-74
2023/11/03 07:06:53;;;;;;;5.75;1.15;;;;;;;9.23;100.00;97573.97;5029523;28;20099;-72
2023/11/03 07:09:23;;;;;;;2.45;0.88;;;;;;;9.32;100.00;97587.19;5041425;28;20501;-73
2023/11/03 07:11:52;;;;;;;7.75;1.27;;;;;;;9.30;100.00;97578.56;5055167;28;20045;-73
2023/11/03 07:14:24;;;;;;;3.65;1.13;;;;;;;9.42;100.00;97587.25;5048615;28;20124;-71
2023/11/03 07:16:53;;;;;;;3.72;1.23;;;;;;;9.49;100.00;97591.88;5061805;28;20045;-72
2023/11/03 07:19:21;;;;;;;6.45;1.02;;;;;;;9.48;100.00;97595.47;5047614;28;20517;-73
2023/11/03 07:21:50;;;;;;;3.47;1.23;;;;;;;9.40;100.00;97591.84;5069449;28;20086;-72
2023/11/03 07:24:21;;;;;;;6.93;1.38;;;;;;;9.28;100.00;97587.63;5050384;28;20529;-71
2023/11/03 07:26:51;;;;;;;5.63;1.55;;;;;;;9.16;100.00;97578.94;5060577;28;20060;-72
2023/11/03 07:29:19;;;;;;;5.70;1.05;;;;;;;9.19;100.00;97591.88;5051967;28;20049;-72
2023/11/03 07:31:49;;;;;;;8.18;1.38;;;;;;;9.09;100.00;97591.84;5036747;28;20112;-72
2023/11/03 07:34:18;;;;;;;4.68;1.25;;;;;;;9.13;100.00;97602.94;5054959;28;20049;-73
2023/11/03 07:36:48;;;;;;;3.65;0.98;;;;;;;9.10;100.00;97593.50;5044996;28;20048;-73
2023/11/03 07:39:16;;;;;;;6.50;1.60;;;;;;;8.99;100.00;97584.81;5070576;28;20579;-73
2023/11/03 07:41:44;;;;;;;5.03;1.13;;;;;;;9.00;100.00;97595.25;5051925;28;20048;-71
2023/11/03 07:44:12;;;;;;;7.57;1.20;;;;;;;9.03;100.00;97600.25;5050519;28;20052;-73
2023/11/03 07:46:41;;;;;;;8.23;1.58;;;;;;;9.07;100.00;97617.53;5028075;28;20086;-73
2023/11/03 07:49:10;;;;;;;5.88;1.30;;;;;;;9.12;100.00;97630.34;5047814;28;20060;-71
2023/11/03 07:51:40;;;;;;;4.28;1.20;;;;;;;9.13;100.00;97640.75;5051609;28;20068;-73
2023/11/03 07:57:02;;;;;;;5.40;1.33;;;;;;;9.28;100.00;97643.06;5057279;28;20057;-72
2023/11/03 07:59:32;;;;;;;5.03;1.45;;;;;;;9.30;100.00;97643.75;5044649;28;20045;-71
2023/11/03 08:02:00;;;;;;;6.25;1.20;;;;;;;9.10;100.00;97625.19;5062657;28;20040;-71
2023/11/03 08:04:29;;;;;;;6.55;1.20;;;;;;;9.10;100.00;97640.19;5055459;28;20670;-73
2023/11/03 08:06:57;;;;;;;6.93;1.73;;;;;;;9.13;100.00;97637.25;5064430;28;20052;-75
2023/11/03 08:09:27;;;;;;;5.78;1.45;;;;;;;9.09;100.00;97636.72;5052308;28;20155;-73
2023/11/03 08:11:57;;;;;;;3.83;1.30;;;;;;;9.09;100.00;97654.34;5040878;28;20041;-71
2023/11/03 08:14:25;;;;;;;4.97;1.00;;;;;;;9.09;100.00;97649.06;5053339;28;20099;-72
2023/11/03 08:16:53;;;;;;;7.43;1.67;;;;;;;9.25;100.00;97654.72;5059410;28;20391;-73
2023/11/03 08:19:23;;;;;;;5.70;1.40;;;;;;;9.18;100.00;97619.25;5041400;28;20057;-72
2023/11/03 08:21:53;;;;;;;7.87;1.70;;;;;;;9.50;100.00;97677.22;5052300;28;20041;-72
2023/11/03 08:24:22;;;;;;;4.45;1.20;;;;;;;9.55;100.00;97671.56;5056391;28;20044;-74
2023/11/03 08:26:53;;;;;;;3.97;1.38;;;;;;;9.77;100.00;97685.41;5049461;28;20053;-72
2023/11/03 08:29:23;;;;;;;5.28;1.02;;;;;;;9.91;100.00;97684.25;5061664;28;20592;-72
2023/11/03 08:31:51;;;;;;;6.85;1.65;;;;;;;9.93;100.00;97682.28;5053615;28;20064;-73
2023/11/03 08:34:21;;;;;;;5.13;1.52;;;;;;;10.00;100.00;97691.34;5054038;28;20468;-72
2023/11/03 08:36:52;;;;;;;5.35;1.58;;;;;;;9.93;100.00;97686.72;5053631;28;20045;-74
2023/11/03 08:39:22;;;;;;;5.45;1.50;;;;;;;9.85;100.00;97682.13;5076993;28;20131;-74
2023/11/03 08:42:00;;;;;;;5.00;1.30;;;;;;;9.97;100.00;97673.09;5048528;28;20318;-73
2023/11/03 08:44:29;;;;;;;5.72;1.52;;;;;;;10.08;100.00;97670.34;5040092;28;20059;-75
2023/11/03 08:46:58;;;;;;;7.93;1.67;;;;;;;10.14;100.00;97672.47;5050316;28;21916;-72
2023/11/03 08:49:30;;;;;;;3.13;1.13;;;;;;;9.97;100.00;97674.91;5051566;28;20045;-72
2023/11/03 08:51:58;;;;;;;8.00;1.42;;;;;;;9.83;100.00;97687.53;5049269;28;20098;-73
2023/11/03 08:54:33;;;;;;;7.25;1.70;;;;;;;9.95;100.00;97690.06;5040813;28;20060;-72
2023/11/03 08:57:02;;;;;;;5.30;1.58;;;;;;;10.02;100.00;97692.06;5060290;28;20049;-72
2023/11/03 08:59:34;;;;;;;4.85;1.13;;;;;;;10.15;100.00;97691.81;5063032;28;20056;-73
2023/11/03 09:02:03;;;;;;;5.65;1.40;;;;;;;10.18;100.00;97692.41;5048240;28;20733;-72
2023/11/03 09:04:33;;;;;;;9.37;1.50;;;;;;;10.23;100.00;97688.53;5059033;28;20048;-72
2023/11/03 09:07:09;;;;;;;7.03;1.30;;;;;;;10.02;100.00;97686.78;5047220;28;20139;-73
2023/11/03 09:09:40;;;;;;;5.70;0.90;;;;;;;9.94;100.00;97688.41;5047543;28;20054;-72
2023/11/03 09:12:12;;;;;;;9.57;4.43;;;;;;;9.99;100.00;97691.50;5048969;28;20045;-72
2023/11/03 09:14:43;;;;;;;5.63;1.42;;;;;;;10.06;100.00;97692.63;5049725;28;20126;-72
2023/11/03 09:17:15;;;;;;;3.65;1.00;;;;;;;10.14;100.00;97704.19;5041184;28;20045;-72
2023/11/03 09:19:43;;;;;;;5.00;0.90;;;;;;;10.36;100.00;97697.91;5061397;28;20045;-72
2023/11/03 09:22:12;;;;;;;4.25;1.15;;;;;;;10.56;100.00;97701.38;5049864;28;20065;-72
2023/11/03 09:24:53;;;;;;;7.97;1.42;;;;;;;10.61;100.00;97693.88;5033787;28;20036;-73
2023/11/03 09:27:22;;;;;;;7.55;1.70;;;;;;;10.66;100.00;97691.66;5049452;28;20052;-73
2023/11/03 09:29:50;;;;;;;5.75;1.40;;;;;;;10.58;100.00;97690.66;5056343;28;20049;-73
2023/11/03 09:32:19;;;;;;;6.87;1.50;;;;;;;10.53;100.00;97688.47;5051685;28;20045;-72
2023/11/03 09:34:48;;;;;;;3.67;1.10;;;;;;;10.54;100.00;97674.25;5034156;28;21052;-72
2023/11/03 09:37:17;;;;;;;7.93;1.40;;;;;;;10.55;100.00;97689.13;5039355;28;20037;-72
2023/11/03 09:39:49;;;;;;;6.13;1.52;;;;;;;10.31;100.00;97665.72;5043514;28;20063;-73
2023/11/03 09:42:19;;;;;;;7.72;1.33;;;;;;;10.32;100.00;97693.00;5050064;28;20055;-73
2023/11/03 09:44:48;;;;;;;6.57;1.40;;;;;;;10.31;100.00;97691.31;5048922;28;20029;-72
2023/11/03 09:47:21;;;;;;;6.18;1.20;;;;;;;10.39;100.00;97704.72;5059557;28;20075;-72
2023/11/03 09:49:50;;;;;;;8.25;1.85;;;;;;;10.32;100.00;97693.00;5042352;28;20057;-71
2023/11/03 09:52:24;;;;;;;7.38;1.13;;;;;;;10.35;100.00;97695.38;5045106;28;20506;-72
2023/11/03 09:54:54;;;;;;;7.80;1.05;;;;;;;10.53;100.00;97707.81;5064448;28;20045;-72
2023/11/03 09:57:24;;;;;;;7.28;1.90;;;;;;;10.63;100.00;97707.81;5045976;28;20043;-72
2023/11/03 09:59:54;;;;;;;4.82;1.17;;;;;;;10.67;100.00;97713.69;5045771;28;20045;-72
2023/11/03 10:02:25;;;;;;;5.57;1.30;;;;;;;10.57;100.00;97700.41;5048833;28;20049;-72
2023/11/03 10:04:54;;;;;;;4.60;0.95;;;;;;;10.73;100.00;97716.59;5047519;28;20049;-72
2023/11/03 10:07:25;;;;;;;5.90;1.17;;;;;;;10.65;100.00;97707.69;5024999;28;20135;-72
2023/11/03 10:09:58;;;;;;;2.85;0.90;;;;;;;10.55;100.00;97716.41;5041714;28;20211;-72
2023/11/03 10:12:34;;;;;;;4.40;1.05;;;;;;;10.37;100.00;97717.25;5042280;28;20405;-72
2023/11/03 10:15:03;;;;;;;4.05;1.00;;;;;;;10.26;100.00;97698.81;5057077;28;20137;-73
2023/11/03 10:17:32;;;;;;;9.00;1.58;;;;;;;10.49;100.00;97708.22;5045859;28;20100;-75
2023/11/03 10:20:05;;;;;;;3.03;0.88;;;;;;;10.55;100.00;97711.13;5043639;28;20041;-72
2023/11/03 10:22:33;;;;;;;5.57;1.10;;;;;;;10.64;100.00;97709.50;5042296;28;20460;-74
2023/11/03 10:25:04;;;;;;;5.18;1.25;;;;;;;10.67;100.00;97713.69;5048848;28;20036;-76
2023/11/03 10:27:36;;;;;;;4.70;1.05;;;;;;;10.71;100.00;97717.69;5053568;28;20048;-76
2023/11/03 10:30:06;;;;;;;4.38;1.20;;;;;;;10.76;100.00;97716.31;5046715;28;20041;-74
2023/11/03 10:32:35;;;;;;;4.00;0.98;;;;;;;10.80;100.00;97717.72;5041667;28;20528;-74
2023/11/03 10:35:08;;;;;;;2.88;1.02;;;;;;;10.93;100.00;97711.31;5049660;28;20098;-75
2023/11/03 10:37:37;;;;;;;4.60;1.20;;;;;;;11.02;100.00;97713.13;5069618;28;20079;-73
2023/11/03 10:40:12;;;;;;;6.78;1.40;;;;;;;10.81;100.00;97714.09;5063020;28;20479;-75
2023/11/03 10:42:48;;;;;;;4.03;1.63;;;;;;;10.55;100.00;97705.84;5058070;28;20247;-72
2023/11/03 10:45:20;;;;;;;4.93;1.40;;;;;;;10.53;100.00;97721.03;5059179;28;20047;-73
2023/11/03 10:48:01;;;;;;;2.83;1.10;;;;;;;10.42;100.00;97715.84;5049195;28;20044;-74
2023/11/03 10:50:35;;;;;;;6.80;1.33;;;;;;;10.59;100.00;97730.22;5052481;28;20048;-72
2023/11/03 10:53:14;;;;;;;4.72;1.30;;;;;;;10.61;100.00;97719.50;5066798;28;20045;-73
2023/11/03 10:55:54;;;;;;;7.20;1.42;;;;;;;10.56;100.00;97725.19;5069674;28;20402;-76
2023/11/03 10:58:25;;;;;;;6.93;1.40;;;;;;;10.50;100.00;97720.47;5055768;28;20046;-73
2023/11/03 11:00:59;;;;;;;5.43;1.30;;;;;;;10.49;100.00;97719.63;5053379;28;20044;-73
2023/11/03 11:03:31;;;;;;;4.18;1.02;;;;;;;10.51;100.00;97716.84;5052762;28;20114;-74
2023/11/03 11:06:05;;;;;;;4.18;1.10;;;;;;;10.50;100.00;97715.19;5050735;28;20067;-73
2023/11/03 11:08:36;;;;;;;7.25;3.15;;;;;;;10.54;100.00;97708.66;5028332;28;20065;-73
2023/11/03 11:11:05;;;;;;;4.47;1.23;;;;;;;10.39;100.00;97699.44;5020852;28;20045;-73
2023/11/03 11:13:34;;;;;;;5.43;1.23;;;;;;;10.33;100.00;97705.25;5051296;28;20049;-74
2023/11/03 11:16:08;;;;;;;9.90;6.65;;;;;;;10.29;100.00;97701.19;5030032;28;20127;-74
2023/11/03 11:18:44;;;;;;;4.57;1.20;;;;;;;10.30;100.00;97694.94;5060205;28;20042;-74
2023/11/03 11:21:14;;;;;;;5.30;0.98;;;;;;;10.34;100.00;97691.06;5067252;28;20048;-73
2023/11/03 11:23:47;;;;;;;8.57;2.00;;;;;;;10.29;100.00;97674.75;5040816;28;20136;-73
2023/11/03 11:26:20;;;;;;;7.80;1.23;;;;;;;10.49;100.00;97697.63;5046952;28;20056;-73
2023/11/03 11:29:05;;;;;;;8.23;1.85;;;;;;;10.48;100.00;97698.59;5038035;28;20056;-74
2023/11/03 11:31:38;;;;;;;;;;;;;;;10.57;100.00;97708.34;5059204;28;20438;-75
2023/11/03 11:34:12;;;;;;;6.68;1.23;;;;;;;10.70;100.00;97693.06;5051625;28;20495;-74
2023/11/03 11:36:41;;;;;;;5.55;1.10;;;;;;;10.84;100.00;97695.31;5034673;28;20068;-74
2023/11/03 11:39:19;;;;;;;3.78;1.58;;;;;;;10.90;100.00;97697.38;5044045;28;20044;-75
2023/11/03 11:41:50;;;;;;;6.97;1.75;;;;;;;11.08;100.00;97704.63;5051898;28;20119;-74
2023/11/03 11:44:22;;;;;;;6.60;1.30;;;;;;;11.18;100.00;97695.66;5055708;28;20049;-73
2023/11/03 11:46:54;;;;;;;5.63;1.15;;;;;;;11.15;100.00;97692.50;5033450;28;20068;-73